Wetterstation Vordersexau
Wetterdaten: Woche 21.05.18 - 27.05.18 (KW21)
Datum Zeit Temp. A. Feuchte A. Luftdruck Regen Wind Richtung Taupunkt Windchill Windben
21.05.2018 00:00 11,5 C 76 % 1014,5 hPa 0,0 l/m 0,0 km/h SO 7,4 C 11,5 C 0,0 km/h
21.05.2018 01:00 11,0 C 75 % 1014,0 hPa 0,0 l/m 0,0 km/h SO 6,7 C 11,0 C 0,0 km/h
21.05.2018 02:00 10,9 C 74 % 1014,2 hPa 0,0 l/m 0,0 km/h SO 6,5 C 10,9 C 0,0 km/h
21.05.2018 03:00 10,6 C 73 % 1014,0 hPa 0,0 l/m 0,0 km/h O-SO 6,0 C 10,6 C 0,0 km/h
21.05.2018 04:00 10,9 C 71 % 1014,0 hPa 0,0 l/m 0,0 km/h N-NO 5,9 C 10,9 C 0,0 km/h
21.05.2018 05:00 10,9 C 71 % 1014,5 hPa 0,0 l/m 0,0 km/h N-NO 5,9 C 10,9 C 0,0 km/h
21.05.2018 06:00 10,9 C 70 % 1014,5 hPa 3,1 l/m 0,0 km/h N-NW 5,6 C 10,9 C 0,0 km/h
21.05.2018 07:00 11,1 C 69 % 1014,9 hPa 0,5 l/m 0,0 km/h N-NW 5,6 C 11,1 C 0,0 km/h
21.05.2018 08:00 11,2 C 67 % 1015,3 hPa 0,0 l/m 0,0 km/h S-SO 5,3 C 11,2 C 0,0 km/h
21.05.2018 09:00 11,8 C 65 % 1015,8 hPa 0,0 l/m 0,0 km/h S-SO 5,4 C 11,8 C 0,0 km/h
21.05.2018 10:00 13,1 C 60 % 1015,7 hPa 0,0 l/m 0,0 km/h W-NW 5,5 C 13,1 C 0,0 km/h
21.05.2018 11:00 13,4 C 70 % 1015,8 hPa 0,0 l/m 0,0 km/h W-SW 8,0 C 13,4 C 0,0 km/h
21.05.2018 12:00 14,8 C 78 % 1015,9 hPa 0,0 l/m 0,0 km/h N-NO 11,0 C 14,8 C 0,0 km/h
21.05.2018 13:00 14,5 C 81 % 1016,1 hPa 0,5 l/m 0,0 km/h N-NW 11,3 C 14,5 C 0,0 km/h
21.05.2018 14:00 16,9 C 84 % 1016,2 hPa 0,0 l/m 0,0 km/h N-NO 14,2 C 16,9 C 0,0 km/h
21.05.2018 15:00 17,4 C 78 % 1015,9 hPa 0,0 l/m 0,0 km/h NW 13,5 C 17,4 C 0,0 km/h
21.05.2018 16:00 18,1 C 73 % 1015,8 hPa 0,0 l/m 0,0 km/h N 13,2 C 18,1 C 0,0 km/h
21.05.2018 17:00 17,2 C 74 % 1015,8 hPa 0,0 l/m 0,0 km/h O-NO 12,5 C 17,2 C 0,0 km/h
21.05.2018 18:00 16,9 C 77 % 1015,9 hPa 0,0 l/m 0,0 km/h NO 12,8 C 16,9 C 0,0 km/h
21.05.2018 19:00 16,1 C 79 % 1016,1 hPa 0,0 l/m 0,0 km/h NO 12,5 C 16,1 C 0,0 km/h
21.05.2018 20:00 15,3 C 83 % 1016,2 hPa 0,0 l/m 0,0 km/h O-SO 12,4 C 15,3 C 0,0 km/h
21.05.2018 21:00 14,4 C 84 % 1016,9 hPa 0,0 l/m 0,0 km/h O-SO 11,7 C 14,4 C 0,0 km/h
21.05.2018 22:00 13,7 C 84 % 1017,1 hPa 0,0 l/m 0,0 km/h O-NO 11,0 C 13,7 C 0,0 km/h
21.05.2018 23:00 13,2 C 83 % 1017,0 hPa 0,0 l/m 0,0 km/h SO 10,4 C 13,2 C 0,0 km/h
22.05.2018 00:00 12,9 C 83 % 1016,8 hPa 0,0 l/m 0,0 km/h SO 10,1 C 12,9 C 0,0 km/h
22.05.2018 01:00 12,4 C 84 % 1016,7 hPa 0,0 l/m 0,0 km/h O-SO 9,8 C 12,4 C 0,0 km/h
22.05.2018 02:00 11,5 C 84 % 1016,6 hPa 0,0 l/m 0,0 km/h O-NO 8,9 C 11,5 C 0,0 km/h
22.05.2018 03:00 12,1 C 83 % 1009,0 hPa 1,0 l/m 0,0 km/h O-SO 9,3 C 12,1 C 0,0 km/h
22.05.2018 04:00 11,9 C 82 % 1009,0 hPa 0,0 l/m 0,0 km/h O-SO 8,9 C 11,9 C 0,0 km/h
22.05.2018 05:00 11,4 C 83 % 1009,4 hPa 0,0 l/m 0,0 km/h O-SO 8,6 C 11,4 C 0,0 km/h
22.05.2018 06:00 11,8 C 82 % 1009,7 hPa 0,0 l/m 0,0 km/h O-SO 8,8 C 11,8 C 0,0 km/h
22.05.2018 07:00 13,6 C 81 % 1009,9 hPa 0,0 l/m 0,0 km/h O-SO 10,4 C 13,6 C 0,0 km/h
22.05.2018 08:00 15,1 C 84 % 1010,2 hPa 0,0 l/m 0,0 km/h SO 12,4 C 15,1 C 0,0 km/h
22.05.2018 09:00 17,1 C 81 % 1010,3 hPa 0,0 l/m 0,0 km/h W 13,8 C 17,1 C 0,0 km/h
22.05.2018 10:00 19,1 C 77 % 1009,8 hPa 0,0 l/m 0,0 km/h W-SW 15,0 C 19,1 C 0,0 km/h
22.05.2018 11:00 20,5 C 71 % 1009,7 hPa 0,0 l/m 0,0 km/h SO 15,1 C 20,5 C 0,0 km/h
22.05.2018 12:00 22,3 C 69 % 1009,5 hPa 0,0 l/m 0,0 km/h W-SW 16,3 C 22,3 C 0,0 km/h
22.05.2018 13:00 21,6 C 67 % 1009,1 hPa 0,0 l/m 0,0 km/h SO 15,2 C 21,6 C 0,0 km/h
22.05.2018 14:00 23,1 C 63 % 1009,2 hPa 0,0 l/m 0,0 km/h NO 15,7 C 23,1 C 0,0 km/h
22.05.2018 15:00 23,6 C 48 % 1009,5 hPa 0,0 l/m 0,0 km/h NO 11,9 C 23,6 C 0,0 km/h
22.05.2018 16:00 20,5 C 61 % 1009,1 hPa 0,0 l/m 0,0 km/h NO 12,7 C 20,5 C 0,0 km/h
22.05.2018 17:00 20,1 C 64 % 1009,0 hPa 0,0 l/m 0,0 km/h O 13,1 C 20,1 C 0,0 km/h
22.05.2018 18:00 18,6 C 66 % 1009,2 hPa 0,0 l/m 0,0 km/h SO 12,1 C 18,6 C 0,0 km/h
22.05.2018 19:00 17,4 C 73 % 1009,3 hPa 0,0 l/m 0,0 km/h SO 12,5 C 17,4 C 0,0 km/h
22.05.2018 20:00 16,6 C 79 % 1010,0 hPa 0,0 l/m 0,0 km/h SO 12,9 C 16,6 C 0,0 km/h
22.05.2018 21:00 15,6 C 80 % 1010,9 hPa 0,0 l/m 0,0 km/h O-SO 12,2 C 15,6 C 0,0 km/h
22.05.2018 22:00 14,7 C 82 % 1011,7 hPa 0,0 l/m 0,0 km/h SO 11,7 C 14,7 C 0,0 km/h
22.05.2018 23:00 14,5 C 83 % 1011,9 hPa 0,0 l/m 0,0 km/h SO 11,6 C 14,5 C 0,0 km/h
23.05.2018 00:00 14,3 C 83 % 1012,3 hPa 0,0 l/m 0,0 km/h O-SO 11,5 C 14,3 C 0,0 km/h
23.05.2018 01:00 13,8 C 84 % 1012,5 hPa 0,0 l/m 0,0 km/h O-SO 11,1 C 13,8 C 0,0 km/h
23.05.2018 02:00 13,3 C 84 % 1012,5 hPa 0,0 l/m 0,0 km/h O-SO 10,7 C 13,3 C 0,0 km/h
23.05.2018 03:00 12,7 C 84 % 1012,7 hPa 0,0 l/m 0,0 km/h SO 10,1 C 12,7 C 0,0 km/h
23.05.2018 04:00 12,4 C 84 % 1012,8 hPa 0,0 l/m 0,0 km/h O-NO 9,8 C 12,4 C 0,0 km/h
23.05.2018 05:00 12,1 C 84 % 1013,1 hPa 0,0 l/m 0,0 km/h O-SO 9,5 C 12,1 C 0,0 km/h
23.05.2018 06:00 12,7 C 83 % 1013,4 hPa 0,0 l/m 0,0 km/h O 9,9 C 12,7 C 0,0 km/h
23.05.2018 07:00 13,8 C 83 % 1014,2 hPa 0,0 l/m 0,0 km/h SO 11,0 C 13,8 C 0,0 km/h
23.05.2018 08:00 14,7 C 84 % 1014,8 hPa 0,0 l/m 0,0 km/h SO 12,0 C 14,7 C 0,0 km/h
23.05.2018 09:00 15,6 C 84 % 1015,1 hPa 0,0 l/m 0,0 km/h O 12,9 C 15,6 C 0,0 km/h
23.05.2018 10:00 17,6 C 82 % 1015,0 hPa 0,0 l/m 0,0 km/h N-NW 14,5 C 17,6 C 0,0 km/h
23.05.2018 11:00 19,2 C 75 % 1015,0 hPa 0,0 l/m 0,0 km/h SO 14,7 C 19,2 C 0,0 km/h
23.05.2018 12:00 19,4 C 74 % 1015,0 hPa 0,0 l/m 0,0 km/h O-NO 14,6 C 19,4 C 0,0 km/h
23.05.2018 13:00 17,3 C 82 % 1014,8 hPa 1,0 l/m 0,0 km/h O-NO 14,2 C 17,3 C 0,0 km/h
23.05.2018 14:00 18,4 C 83 % 1014,6 hPa 0,0 l/m 0,0 km/h N-NO 15,5 C 18,4 C 0,0 km/h
23.05.2018 15:00 19,9 C 79 % 1014,2 hPa 0,0 l/m 0,0 km/h N-NO 16,1 C 19,9 C 0,0 km/h
23.05.2018 16:00 20,6 C 74 % 1013,7 hPa 0,0 l/m 0,0 km/h W 15,8 C 20,6 C 0,0 km/h
23.05.2018 17:00 22,1 C 69 % 1013,6 hPa 0,0 l/m 0,0 km/h N 16,1 C 22,1 C 0,0 km/h
23.05.2018 18:00 21,2 C 71 % 1013,7 hPa 0,0 l/m 0,0 km/h NO 15,7 C 21,2 C 0,0 km/h
23.05.2018 19:00 19,8 C 79 % 1014,0 hPa 0,0 l/m 0,0 km/h O-SO 16,0 C 19,8 C 0,0 km/h
23.05.2018 20:00 17,7 C 81 % 1014,7 hPa 0,0 l/m 0,0 km/h O 14,4 C 17,7 C 0,0 km/h
23.05.2018 21:00 16,8 C 83 % 1014,8 hPa 0,0 l/m 0,0 km/h O-NO 13,9 C 16,8 C 0,0 km/h
23.05.2018 22:00 16,1 C 83 % 1014,9 hPa 0,0 l/m 0,0 km/h O-SO 13,2 C 16,1 C 0,0 km/h
23.05.2018 23:00 15,8 C 83 % 1015,4 hPa 0,0 l/m 0,0 km/h O-SO 12,9 C 15,8 C 0,0 km/h
24.05.2018 00:00 15,6 C 83 % 1015,3 hPa 0,0 l/m 0,0 km/h O-SO 12,7 C 15,6 C 0,0 km/h
24.05.2018 01:00 15,4 C 82 % 1015,9 hPa 1,6 l/m 0,0 km/h SO 12,3 C 15,4 C 0,0 km/h
24.05.2018 02:00 15,0 C 75 % 1015,7 hPa 5,2 l/m 0,0 km/h SO 10,6 C 15,0 C 0,0 km/h
24.05.2018 03:00 14,6 C 73 % 1015,1 hPa 3,6 l/m 0,0 km/h SO 9,8 C 14,6 C 0,0 km/h
24.05.2018 04:00 14,1 C 72 % 1015,1 hPa 0,0 l/m 0,0 km/h SO 9,1 C 14,1 C 0,0 km/h
24.05.2018 05:00 13,9 C 72 % 1015,1 hPa 0,0 l/m 0,0 km/h SO 8,9 C 13,9 C 0,0 km/h
24.05.2018 06:00 14,1 C 68 % 1015,3 hPa 0,0 l/m 0,0 km/h SO 8,3 C 14,1 C 0,0 km/h
24.05.2018 07:00 14,5 C 66 % 1015,5 hPa 0,0 l/m 0,0 km/h SO 8,2 C 14,5 C 0,0 km/h
24.05.2018 08:00 15,3 C 65 % 1016,1 hPa 0,0 l/m 0,0 km/h O 8,8 C 15,3 C 0,0 km/h
24.05.2018 09:00 16,3 C 63 % 1016,1 hPa 0,5 l/m 0,0 km/h N-NO 9,2 C 16,3 C 0,0 km/h
24.05.2018 10:00 17,9 C 69 % 1016,0 hPa 0,0 l/m 0,0 km/h W-SW 12,1 C 17,9 C 0,0 km/h
24.05.2018 11:00 19,1 C 84 % 1015,7 hPa 0,0 l/m 0,0 km/h W 16,3 C 19,1 C 0,0 km/h
24.05.2018 12:00 20,4 C 81 % 1015,3 hPa 0,0 l/m 0,0 km/h W-SW 17,0 C 20,4 C 0,0 km/h
24.05.2018 13:00 21,4 C 73 % 1014,7 hPa 0,0 l/m 0,0 km/h SW 16,4 C 21,4 C 0,0 km/h
24.05.2018 14:00 22,9 C 68 % 1013,9 hPa 0,0 l/m 0,0 km/h SW 16,7 C 22,9 C 0,0 km/h
24.05.2018 15:00 23,8 C 58 % 1013,4 hPa 0,0 l/m 0,0 km/h SW 15,0 C 23,8 C 0,0 km/h
24.05.2018 16:00 24,6 C 55 % 1013,0 hPa 0,0 l/m 0,0 km/h W-NW 14,9 C 24,6 C 0,0 km/h
24.05.2018 17:00 24,9 C 53 % 1012,8 hPa 0,0 l/m 0,0 km/h W-SW 14,6 C 24,9 C 0,0 km/h
24.05.2018 18:00 24,8 C 52 % 1012,6 hPa 0,0 l/m 0,0 km/h W 14,3 C 24,8 C 0,0 km/h
24.05.2018 19:00 23,9 C 53 % 1012,8 hPa 0,0 l/m 0,0 km/h NW 13,7 C 23,9 C 0,0 km/h
24.05.2018 20:00 21,3 C 66 % 1013,6 hPa 0,0 l/m 0,0 km/h NW 14,7 C 21,3 C 0,0 km/h
24.05.2018 21:00 18,8 C 74 % 1014,3 hPa 0,0 l/m 0,0 km/h N-NW 14,1 C 18,8 C 0,0 km/h
24.05.2018 22:00 17,1 C 79 % 1014,9 hPa 0,0 l/m 0,0 km/h N-NO 13,4 C 17,1 C 0,0 km/h
24.05.2018 23:00 16,1 C 82 % 1014,8 hPa 0,0 l/m 0,0 km/h NO 13,0 C 16,1 C 0,0 km/h
25.05.2018 00:00 15,4 C 84 % 1015,3 hPa 0,0 l/m 0,0 km/h NO 12,7 C 15,4 C 0,0 km/h
25.05.2018 01:00 14,8 C 83 % 1015,2 hPa 0,0 l/m 0,0 km/h O-NO 11,9 C 14,8 C 0,0 km/h
25.05.2018 02:00 14,3 C 84 % 1015,1 hPa 0,0 l/m 0,0 km/h O-SO 11,6 C 14,3 C 0,0 km/h
25.05.2018 03:00 13,8 C 84 % 1015,0 hPa 0,0 l/m 0,0 km/h O-SO 11,1 C 13,8 C 0,0 km/h
25.05.2018 04:00 13,1 C 84 % 1015,0 hPa 0,0 l/m 0,0 km/h NO 10,5 C 13,1 C 0,0 km/h
25.05.2018 05:00 12,7 C 84 % 1015,0 hPa 0,0 l/m 0,0 km/h O-NO 10,1 C 12,7 C 0,0 km/h
25.05.2018 06:00 13,4 C 82 % 1015,0 hPa 0,0 l/m 0,0 km/h SO 10,4 C 13,4 C 0,0 km/h
25.05.2018 07:00 15,5 C 84 % 1015,0 hPa 0,0 l/m 0,0 km/h N-NW 12,8 C 15,5 C 0,0 km/h
25.05.2018 08:00 17,3 C 82 % 1015,5 hPa 0,0 l/m 0,0 km/h O-NO 14,2 C 17,3 C 0,0 km/h
25.05.2018 09:00 19,1 C 79 % 1015,5 hPa 0,0 l/m 0,0 km/h N-NW 15,4 C 19,1 C 0,0 km/h
25.05.2018 10:00 21,1 C 74 % 1015,3 hPa 0,0 l/m 0,0 km/h N-NW 16,3 C 21,1 C 0,0 km/h
25.05.2018 11:00 23,6 C 67 % 1015,2 hPa 0,0 l/m 0,0 km/h W-NW 17,1 C 23,6 C 0,0 km/h
25.05.2018 12:00 24,5 C 62 % 1014,6 hPa 0,0 l/m 0,0 km/h W-SW 16,7 C 24,5 C 0,0 km/h
25.05.2018 13:00 25,5 C 55 % 1014,3 hPa 0,0 l/m 0,0 km/h W 15,8 C 25,5 C 0,0 km/h
25.05.2018 14:00 26,1 C 54 % 1014,0 hPa 0,0 l/m 0,0 km/h N-NW 16,0 C 26,1 C 0,0 km/h
25.05.2018 15:00 26,6 C 51 % 1013,9 hPa 0,0 l/m 0,0 km/h NW 15,6 C 26,6 C 0,0 km/h
25.05.2018 16:00 27,3 C 49 % 1013,6 hPa 0,0 l/m 0,0 km/h N-NW 15,6 C 27,3 C 0,0 km/h
25.05.2018 17:00 27,2 C 48 % 1013,6 hPa 0,0 l/m 0,0 km/h N-NW 15,2 C 27,2 C 0,0 km/h
25.05.2018 18:00 26,6 C 49 % 1013,1 hPa 0,0 l/m 0,0 km/h N-NW 15,0 C 26,6 C 0,0 km/h
25.05.2018 19:00 25,9 C 52 % 1013,5 hPa 0,0 l/m 0,0 km/h N-NO 15,3 C 25,9 C 0,0 km/h
25.05.2018 20:00 23,9 C 59 % 1013,8 hPa 0,0 l/m 0,0 km/h NO 15,4 C 23,9 C 0,0 km/h
25.05.2018 21:00 20,7 C 69 % 1014,0 hPa 0,0 l/m 0,0 km/h O-SO 14,8 C 20,7 C 0,0 km/h
25.05.2018 22:00 19,2 C 72 % 1014,3 hPa 0,0 l/m 0,0 km/h O-SO 14,0 C 19,2 C 0,0 km/h
25.05.2018 23:00 18,1 C 74 % 1014,3 hPa 0,0 l/m 0,0 km/h SO 13,4 C 18,1 C 0,0 km/h
26.05.2018 00:00 17,3 C 78 % 1014,4 hPa 0,0 l/m 0,0 km/h SO 13,4 C 17,3 C 0,0 km/h
26.05.2018 01:00 16,6 C 79 % 1014,3 hPa 0,0 l/m 0,0 km/h O-SO 12,9 C 16,6 C 0,0 km/h
26.05.2018 02:00 16,3 C 79 % 1014,3 hPa 0,0 l/m 0,0 km/h S-SO 12,6 C 16,3 C 0,0 km/h
26.05.2018 03:00 15,9 C 79 % 1014,5 hPa 0,0 l/m 0,0 km/h SO 12,3 C 15,9 C 0,0 km/h
26.05.2018 04:00 15,1 C 81 % 1014,7 hPa 0,0 l/m 0,0 km/h O-SO 11,9 C 15,1 C 0,0 km/h
26.05.2018 05:00 14,1 C 83 % 1014,8 hPa 0,0 l/m 0,0 km/h O-NO 11,3 C 14,1 C 0,0 km/h
26.05.2018 06:00 14,4 C 83 % 1015,3 hPa 0,0 l/m 0,0 km/h O-NO 11,5 C 14,4 C 0,0 km/h
26.05.2018 07:00 16,3 C 83 % 1015,4 hPa 0,0 l/m 0,0 km/h O 13,4 C 16,3 C 0,0 km/h
26.05.2018 08:00 18,5 C 81 % 1015,7 hPa 0,0 l/m 0,0 km/h NW 15,2 C 18,5 C 0,0 km/h
26.05.2018 09:00 20,1 C 77 % 1015,6 hPa 0,0 l/m 0,0 km/h W-SW 15,9 C 20,1 C 0,0 km/h
26.05.2018 10:00 21,8 C 71 % 1015,9 hPa 0,0 l/m 0,0 km/h SW 16,3 C 21,8 C 0,0 km/h
26.05.2018 11:00 24,1 C 67 % 1016,2 hPa 0,0 l/m 0,0 km/h W-SW 17,6 C 24,1 C 0,0 km/h
26.05.2018 12:00 25,1 C 66 % 1016,1 hPa 0,0 l/m 0,0 km/h W-NW 18,3 C 25,1 C 0,0 km/h
26.05.2018 13:00 26,5 C 61 % 1016,5 hPa 0,0 l/m 0,0 km/h W-SW 18,4 C 26,5 C 0,0 km/h
26.05.2018 14:00 27,6 C 58 % 1016,2 hPa 0,0 l/m 0,0 km/h SW 18,6 C 27,6 C 0,0 km/h
26.05.2018 15:00 26,5 C 60 % 1016,2 hPa 0,0 l/m 0,0 km/h O-NO 18,1 C 26,5 C 0,0 km/h
26.05.2018 16:00 27,9 C 54 % 1016,0 hPa 0,0 l/m 0,0 km/h N 17,7 C 27,9 C 0,0 km/h
26.05.2018 17:00 28,1 C 49 % 1015,8 hPa 0,0 l/m 0,0 km/h N-NO 16,4 C 28,1 C 0,0 km/h
26.05.2018 18:00 27,0 C 50 % 1015,5 hPa 0,0 l/m 0,0 km/h NO 15,7 C 27,0 C 0,0 km/h
26.05.2018 19:00 25,8 C 60 % 1015,6 hPa 0,0 l/m 0,0 km/h O 17,4 C 25,8 C 0,0 km/h
26.05.2018 20:00 23,1 C 68 % 1016,0 hPa 0,0 l/m 0,0 km/h O-NO 16,9 C 23,1 C 0,0 km/h
26.05.2018 21:00 21,7 C 71 % 1016,3 hPa 0,0 l/m 0,0 km/h O-NO 16,2 C 21,7 C 0,0 km/h
26.05.2018 22:00 20,9 C 74 % 1016,6 hPa 0,0 l/m 0,0 km/h SO 16,1 C 20,9 C 0,0 km/h
26.05.2018 23:00 20,1 C 75 % 1016,5 hPa 0,0 l/m 0,0 km/h S-SO 15,5 C 20,1 C 0,0 km/h
27.05.2018 00:00 19,9 C 75 % 1015,8 hPa 0,0 l/m 0,0 km/h S-SO 15,3 C 19,9 C 0,0 km/h
27.05.2018 01:00 19,7 C 75 % 1014,9 hPa 0,0 l/m 0,0 km/h O-SO 15,1 C 19,7 C 0,0 km/h
27.05.2018 02:00 18,6 C 77 % 1014,7 hPa 0,0 l/m 0,0 km/h O-NO 14,5 C 18,6 C 0,0 km/h
27.05.2018 03:00 18,1 C 80 % 1014,6 hPa 0,0 l/m 0,0 km/h O-NO 14,6 C 18,1 C 0,0 km/h
27.05.2018 04:00 17,2 C 82 % 1014,3 hPa 0,0 l/m 0,0 km/h N-NW 14,1 C 17,2 C 0,0 km/h
27.05.2018 05:00 16,9 C 82 % 1014,1 hPa 0,0 l/m 0,0 km/h O-NO 13,8 C 16,9 C 0,0 km/h
27.05.2018 06:00 17,4 C 83 % 1014,4 hPa 0,0 l/m 0,0 km/h SO 14,5 C 17,4 C 0,0 km/h
27.05.2018 07:00 19,4 C 80 % 1015,7 hPa 0,0 l/m 0,0 km/h S-SW 15,9 C 19,4 C 0,0 km/h
27.05.2018 08:00 20,1 C 79 % 1016,1 hPa 0,0 l/m 0,0 km/h NO 16,3 C 20,1 C 0,0 km/h
27.05.2018 09:00 21,6 C 75 % 1015,9 hPa 0,0 l/m 0,0 km/h NO 17,0 C 21,6 C 0,0 km/h
27.05.2018 10:00 23,8 C 71 % 1016,1 hPa 0,0 l/m 0,0 km/h NW 18,2 C 23,8 C 0,0 km/h
27.05.2018 11:00 26,5 C 60 % 1015,4 hPa 0,0 l/m 0,0 km/h W 18,1 C 26,5 C 0,0 km/h
27.05.2018 12:00 26,8 C 59 % 1014,9 hPa 0,0 l/m 0,0 km/h W 18,1 C 26,8 C 0,0 km/h
27.05.2018 13:00 27,9 C 48 % 1014,8 hPa 0,0 l/m 0,0 km/h N-NO 15,9 C 27,9 C 0,0 km/h
27.05.2018 14:00 27,1 C 50 % 1014,7 hPa 0,0 l/m 0,0 km/h O-NO 15,8 C 27,1 C 0,0 km/h
27.05.2018 15:00 27,0 C 55 % 1014,0 hPa 0,0 l/m 0,0 km/h SO 17,2 C 27,0 C 0,0 km/h
27.05.2018 16:00 28,1 C 56 % 1013,7 hPa 0,0 l/m 0,0 km/h N-NO 18,5 C 28,1 C 0,0 km/h
27.05.2018 17:00 27,3 C 54 % 1012,7 hPa 0,0 l/m 0,0 km/h N 17,2 C 27,3 C 0,0 km/h
27.05.2018 18:00 27,3 C 55 % 1012,4 hPa 0,0 l/m 0,0 km/h N 17,4 C 27,3 C 0,0 km/h
27.05.2018 19:00 26,5 C 55 % 1012,2 hPa 0,0 l/m 0,0 km/h N 16,7 C 26,5 C 0,0 km/h
27.05.2018 20:00 23,4 C 63 % 1012,7 hPa 0,0 l/m 0,0 km/h SO 15,9 C 23,4 C 0,0 km/h
27.05.2018 21:00 21,2 C 72 % 1013,1 hPa 0,0 l/m 0,0 km/h O-SO 15,9 C 21,2 C 0,0 km/h
27.05.2018 22:00 19,9 C 76 % 1013,7 hPa 0,0 l/m 0,0 km/h O-SO 15,5 C 19,9 C 0,0 km/h
27.05.2018 23:00 19,1 C 78 % 1013,5 hPa 0,0 l/m 0,0 km/h S-SW 15,2 C 19,1 C 0,0 km/h
Min-Datum _ 21.05.18 22.05.18 22.05.18 - 21.05.18 - 21.05.18 21.05.18 21.05.18
_ Min-Zeit 03:53 15:53 03:53 - 00:53 - 08:53 03:53 00:53
Minimum _ 10,6 C 48 % 1009,0 hPa - 0,0 km/h - 5,3 C 10,6 C 0,0 km/h
Max-Datum _ 26.05.18 21.05.18 21.05.18 24.05.18 21.05.18 - 26.05.18 26.05.18 21.05.18
_ Max-Zeit 17:53 14:53 22:53 02:53 00:53 - 14:53 17:53 00:53
Maximum _ 28,1 C 84 % 1017,1 hPa 5,2 l/m 0,0 km/h
SO
- 18,6 C 28,1 C 0,0 km/h
SO
Durchschnitt _ 18,5 C 73 % 1014,2 hPa #17,1 l/m 0,0 km/h SO 13,2 C 18,5 C 0,0 km/h
www.sexauwetter.de